createdAt,value
2022-12-04T00:01:14.845Z,4.39
2022-12-04T00:03:41.988Z,4.37
2022-12-04T00:06:12.388Z,4.37
2022-12-04T00:08:39.777Z,4.39
2022-12-04T00:11:07.986Z,4.40
2022-12-04T00:13:35.573Z,4.42
2022-12-04T00:16:05.307Z,4.42
2022-12-04T00:18:32.696Z,4.39
2022-12-04T00:21:00.388Z,4.40
2022-12-04T00:23:28.732Z,4.42
2022-12-04T00:26:00.933Z,4.36
2022-12-04T00:28:28.045Z,4.40
2022-12-04T00:30:55.102Z,4.39
2022-12-04T00:33:23.165Z,4.33
2022-12-04T00:35:57.492Z,4.34
2022-12-04T00:38:25.030Z,4.36
2022-12-04T00:40:53.863Z,4.35
2022-12-04T00:43:21.370Z,4.35
2022-12-04T00:45:48.423Z,4.37
2022-12-04T00:48:15.568Z,4.38
2022-12-04T00:50:42.627Z,4.39
2022-12-04T00:53:09.707Z,4.36
2022-12-04T00:55:38.411Z,4.37
2022-12-04T00:58:07.916Z,4.36
2022-12-04T01:00:35.186Z,4.34
2022-12-04T01:03:02.435Z,4.36
2022-12-04T01:05:29.504Z,4.33
2022-12-04T01:07:56.830Z,4.33
2022-12-04T01:10:24.648Z,4.33
2022-12-04T01:12:53.908Z,4.33
2022-12-04T01:15:22.249Z,4.32
2022-12-04T01:17:49.211Z,4.31
2022-12-04T01:20:17.258Z,4.30
2022-12-04T01:22:44.237Z,4.31
2022-12-04T01:25:11.612Z,4.31
2022-12-04T01:27:38.775Z,4.32
2022-12-04T01:30:07.249Z,4.33
2022-12-04T01:32:35.541Z,4.33
2022-12-04T01:35:02.540Z,4.34
2022-12-04T01:37:31.265Z,4.33
2022-12-04T01:39:58.497Z,4.34
2022-12-04T01:42:26.091Z,4.35
2022-12-04T01:45:33.967Z,4.36
2022-12-04T01:48:09.110Z,4.34
2022-12-04T01:50:36.361Z,4.35
2022-12-04T01:53:03.324Z,4.34
2022-12-04T01:55:31.361Z,4.33
2022-12-04T01:57:59.047Z,4.34
2022-12-04T02:00:26.025Z,4.36
2022-12-04T02:02:53.271Z,4.35
2022-12-04T02:05:23.036Z,4.37
2022-12-04T02:07:55.807Z,4.37
2022-12-04T02:10:29.017Z,4.36
2022-12-04T02:13:04.082Z,4.41
2022-12-04T02:15:36.866Z,4.40
2022-12-04T02:18:10.609Z,4.41
2022-12-04T02:20:45.537Z,4.42
2022-12-04T02:23:50.901Z,4.41
2022-12-04T02:26:33.433Z,4.37
2022-12-04T02:29:08.150Z,4.39
2022-12-04T02:31:42.077Z,4.38
2022-12-04T02:34:14.956Z,4.36
2022-12-04T02:36:47.946Z,4.37
2022-12-04T02:39:25.330Z,4.39
2022-12-04T02:41:57.938Z,4.38
2022-12-04T02:44:30.968Z,4.41
2022-12-04T02:47:02.392Z,4.40
2022-12-04T02:49:34.814Z,4.41
2022-12-04T02:52:06.112Z,4.39
2022-12-04T02:54:37.225Z,4.35
2022-12-04T02:57:10.041Z,4.31
2022-12-04T02:59:41.153Z,4.32
2022-12-04T03:02:13.906Z,4.31
2022-12-04T03:04:42.511Z,4.31
2022-12-04T03:07:13.914Z,4.28
2022-12-04T03:09:44.277Z,4.29
2022-12-04T03:12:16.588Z,4.22
2022-12-04T03:14:51.272Z,4.19
2022-12-04T03:17:31.474Z,4.13
2022-12-04T03:20:01.081Z,4.08
2022-12-04T03:22:29.629Z,4.01
2022-12-04T03:24:57.346Z,4.01
2022-12-04T03:27:30.482Z,4.06
2022-12-04T03:30:03.317Z,4.09
2022-12-04T03:32:33.845Z,4.04
2022-12-04T03:35:05.008Z,4.03
2022-12-04T03:37:37.554Z,4.05
2022-12-04T03:40:11.952Z,4.08
2022-12-04T03:42:44.311Z,4.07
2022-12-04T03:45:20.284Z,4.08
2022-12-04T03:47:55.481Z,4.05
2022-12-04T03:50:28.846Z,4.00
2022-12-04T03:53:05.503Z,3.93
2022-12-04T03:55:36.493Z,3.93
2022-12-04T03:58:08.281Z,3.91
2022-12-04T04:00:41.523Z,3.90
2022-12-04T04:03:12.884Z,3.94
2022-12-04T04:05:45.135Z,3.98
2022-12-04T04:08:31.158Z,4.04
2022-12-04T04:11:05.433Z,4.10
2022-12-04T04:13:56.188Z,4.12
2022-12-04T04:16:47.292Z,4.19
2022-12-04T04:19:34.777Z,4.20
2022-12-04T04:22:22.821Z,4.13
2022-12-04T04:24:55.145Z,4.08
2022-12-04T04:27:22.274Z,3.97
2022-12-04T04:29:52.564Z,3.97
2022-12-04T04:32:28.972Z,3.97
2022-12-04T04:35:01.962Z,3.97
2022-12-04T04:37:35.410Z,3.96
2022-12-04T04:40:11.853Z,3.97
2022-12-04T04:42:44.778Z,4.00
2022-12-04T04:45:15.865Z,4.05
2022-12-04T04:47:48.868Z,4.13
2022-12-04T04:50:18.019Z,4.21
2022-12-04T04:52:49.248Z,4.29
2022-12-04T04:55:17.881Z,4.37
2022-12-04T04:57:44.844Z,4.44
2022-12-04T05:00:16.620Z,4.51
2022-12-04T05:02:45.383Z,4.56
2022-12-04T05:05:13.196Z,4.60
2022-12-04T05:07:40.338Z,4.64
2022-12-04T05:10:09.316Z,4.68
2022-12-04T05:12:36.412Z,4.72
2022-12-04T05:15:03.632Z,4.75
2022-12-04T05:17:30.617Z,4.76
2022-12-04T05:19:59.369Z,4.79
2022-12-04T05:22:29.017Z,4.81
2022-12-04T05:24:56.255Z,4.82
2022-12-04T05:27:25.454Z,4.82
2022-12-04T05:29:54.396Z,4.83
2022-12-04T05:32:22.309Z,4.84
2022-12-04T05:34:49.674Z,4.84
2022-12-04T05:37:18.525Z,4.84
2022-12-04T05:39:46.001Z,4.88
2022-12-04T05:42:13.276Z,4.90
2022-12-04T05:44:40.235Z,4.91
2022-12-04T05:47:07.722Z,4.93
2022-12-04T05:49:35.422Z,4.94
2022-12-04T05:52:03.574Z,4.94
2022-12-04T05:54:32.121Z,4.94
2022-12-04T05:56:59.477Z,4.97
2022-12-04T05:59:26.498Z,4.98
2022-12-04T06:01:53.825Z,4.96
2022-12-04T06:04:21.092Z,4.97
2022-12-04T06:06:48.116Z,5.00
2022-12-04T06:09:15.175Z,5.02
2022-12-04T06:11:43.601Z,5.04
2022-12-04T06:14:13.323Z,5.06
2022-12-04T06:16:42.821Z,5.07
2022-12-04T06:19:13.113Z,5.03
2022-12-04T06:21:42.065Z,5.00
2022-12-04T06:24:12.565Z,5.00
2022-12-04T06:26:57.590Z,5.02
2022-12-04T06:29:28.013Z,5.02
2022-12-04T06:31:54.997Z,5.02
2022-12-04T06:34:22.020Z,5.12
2022-12-04T06:36:49.169Z,5.48
2022-12-04T06:39:18.956Z,5.68
2022-12-04T06:41:47.602Z,5.85
2022-12-04T06:44:15.348Z,6.06
2022-12-04T06:46:47.114Z,6.20
2022-12-04T06:49:14.659Z,6.32
2022-12-04T06:51:41.913Z,6.30
2022-12-04T06:54:09.665Z,6.30
2022-12-04T06:56:36.729Z,6.36
2022-12-04T06:59:04.610Z,6.42
2022-12-04T07:01:33.744Z,6.58
2022-12-04T07:04:04.418Z,6.61
2022-12-04T07:06:33.226Z,6.61
2022-12-04T07:09:03.162Z,6.41
2022-12-04T07:11:32.754Z,6.22
2022-12-04T07:14:00.530Z,6.08
2022-12-04T07:16:29.471Z,5.96
2022-12-04T07:18:57.515Z,5.81
2022-12-04T07:21:28.162Z,5.69
2022-12-04T07:23:56.922Z,5.64
2022-12-04T07:26:24.805Z,5.52
2022-12-04T07:28:52.435Z,5.41
2022-12-04T07:31:21.742Z,5.43
2022-12-04T07:33:49.720Z,5.37
2022-12-04T07:36:19.506Z,5.31
2022-12-04T07:38:48.342Z,5.26
2022-12-04T07:41:15.923Z,5.23
2022-12-04T07:43:43.306Z,5.24
2022-12-04T07:46:13.813Z,5.24
2022-12-04T07:48:41.219Z,5.28
2022-12-04T07:51:10.203Z,5.24
2022-12-04T07:53:37.962Z,5.28
2022-12-04T07:56:08.051Z,5.32
2022-12-04T07:58:35.638Z,5.33
2022-12-04T08:01:08.133Z,5.33
2022-12-04T08:03:35.372Z,5.38
2022-12-04T08:06:02.754Z,5.40
2022-12-04T08:08:30.097Z,5.42
2022-12-04T08:10:57.346Z,5.38
2022-12-04T08:13:26.168Z,5.37
2022-12-04T08:15:53.278Z,5.38
2022-12-04T08:18:20.413Z,5.43
2022-12-04T08:20:48.207Z,5.52
2022-12-04T08:23:16.330Z,5.53
2022-12-04T08:25:43.743Z,5.56
2022-12-04T08:28:12.034Z,5.62
2022-12-04T08:30:41.101Z,5.67
2022-12-04T08:33:08.847Z,5.68
2022-12-04T08:35:37.220Z,5.64
2022-12-04T08:38:05.509Z,5.67
2022-12-04T08:40:33.876Z,5.69
2022-12-04T08:43:01.216Z,5.69
2022-12-04T08:45:28.662Z,5.75
2022-12-04T08:47:58.046Z,5.74
2022-12-04T08:50:25.787Z,5.72
2022-12-04T08:52:53.442Z,5.65
2022-12-04T08:55:20.595Z,5.68
2022-12-04T08:57:48.878Z,5.69
2022-12-04T09:00:17.493Z,5.61
2022-12-04T09:02:45.634Z,5.64
2022-12-04T09:05:14.388Z,5.68
2022-12-04T09:07:42.126Z,5.72
2022-12-04T09:10:11.570Z,5.80
2022-12-04T09:12:39.580Z,5.89
2022-12-04T09:15:09.150Z,5.98
2022-12-04T09:17:37.660Z,5.94
2022-12-04T09:20:07.062Z,5.95
2022-12-04T09:23:02.420Z,5.92
2022-12-04T09:25:25.486Z,5.97
2022-12-04T09:27:53.467Z,6.03
2022-12-04T09:30:21.269Z,6.09
2022-12-04T09:32:48.999Z,6.11
2022-12-04T09:35:17.365Z,6.22
2022-12-04T09:37:49.748Z,6.28
2022-12-04T09:40:29.512Z,6.30
2022-12-04T09:43:05.414Z,6.30
2022-12-04T09:45:42.940Z,6.33
2022-12-04T09:48:13.361Z,6.29
2022-12-04T09:50:44.672Z,6.28
2022-12-04T09:53:16.953Z,6.23
2022-12-04T09:55:48.696Z,6.23
2022-12-04T09:58:22.325Z,6.25
2022-12-04T10:00:52.392Z,6.28
2022-12-04T10:03:22.431Z,6.28
2022-12-04T10:06:00.132Z,6.33
2022-12-04T10:08:33.184Z,6.35
2022-12-04T10:11:09.706Z,6.34
2022-12-04T10:14:02.643Z,6.44
2022-12-04T10:16:42.898Z,6.52
2022-12-04T10:19:18.100Z,6.62
2022-12-04T10:21:58.223Z,6.72
2022-12-04T10:24:38.577Z,6.82
2022-12-04T10:27:12.645Z,6.91
2022-12-04T10:29:43.245Z,6.95
2022-12-04T10:32:21.582Z,7.05
2022-12-04T10:34:51.485Z,7.02
2022-12-04T10:37:19.826Z,7.01
2022-12-04T10:39:55.345Z,6.94
2022-12-04T10:42:34.446Z,7.03
2022-12-04T10:45:02.972Z,7.15
2022-12-04T10:47:31.467Z,7.24
2022-12-04T10:50:03.776Z,7.17
2022-12-04T10:52:32.530Z,7.10
2022-12-04T10:55:03.416Z,7.13
2022-12-04T10:57:39.864Z,7.11
2022-12-04T11:00:28.443Z,7.15
2022-12-04T11:02:59.817Z,7.08
2022-12-04T11:05:32.732Z,7.08
2022-12-04T11:08:04.633Z,7.09
2022-12-04T11:10:38.056Z,7.05
2022-12-04T11:13:15.453Z,7.04
2022-12-04T11:15:46.726Z,6.98
2022-12-04T11:18:19.708Z,6.91
2022-12-04T11:20:54.132Z,6.97
2022-12-04T11:23:23.389Z,6.97
2022-12-04T11:26:02.108Z,7.02
2022-12-04T11:28:43.115Z,7.03
2022-12-04T11:31:18.051Z,6.94
2022-12-04T11:33:49.208Z,6.95
2022-12-04T11:36:24.032Z,6.88
2022-12-04T11:38:54.064Z,6.98
2022-12-04T11:41:29.720Z,6.99
2022-12-04T11:44:00.617Z,6.96
2022-12-04T11:46:32.207Z,6.96
2022-12-04T11:49:01.145Z,6.93
2022-12-04T11:51:42.966Z,6.93
2022-12-04T11:54:23.772Z,7.02
2022-12-04T11:57:01.523Z,7.08
2022-12-04T11:59:46.878Z,7.04
2022-12-04T12:02:35.573Z,7.01
2022-12-04T12:05:15.608Z,7.03
2022-12-04T12:07:53.018Z,7.01
2022-12-04T12:10:30.042Z,6.98
2022-12-04T12:13:08.254Z,6.98
2022-12-04T12:15:46.003Z,6.97
2022-12-04T12:18:32.540Z,7.02
2022-12-04T12:21:06.369Z,6.98
2022-12-04T12:23:57.351Z,6.92
2022-12-04T12:26:31.147Z,6.85
2022-12-04T12:29:17.944Z,6.73
2022-12-04T12:32:05.775Z,6.77
2022-12-04T12:34:40.732Z,6.77
2022-12-04T12:37:17.581Z,6.78
2022-12-04T12:39:51.670Z,6.81
2022-12-04T12:42:27.863Z,6.77
2022-12-04T12:45:05.274Z,6.75
2022-12-04T12:47:42.053Z,6.68
2022-12-04T12:50:17.273Z,6.66
2022-12-04T12:52:54.117Z,6.68
2022-12-04T12:55:26.381Z,6.67
2022-12-04T12:58:02.009Z,6.63
2022-12-04T13:00:37.207Z,6.63
2022-12-04T13:03:13.995Z,6.58
2022-12-04T13:05:47.287Z,6.59
2022-12-04T13:08:23.442Z,6.54
2022-12-04T13:10:59.991Z,6.54
2022-12-04T13:13:31.671Z,6.54
2022-12-04T13:16:08.365Z,6.56
2022-12-04T13:18:44.175Z,6.47
2022-12-04T13:21:29.054Z,6.47
2022-12-04T13:24:15.714Z,6.45
2022-12-04T13:26:50.000Z,6.40
2022-12-04T13:29:32.637Z,6.39
2022-12-04T13:32:09.790Z,6.33
2022-12-04T13:34:52.553Z,6.27
2022-12-04T13:37:35.647Z,6.30
2022-12-04T13:40:35.220Z,6.26
2022-12-04T13:43:17.832Z,6.24
2022-12-04T13:45:48.683Z,6.25
2022-12-04T13:48:29.379Z,6.23
2022-12-04T13:51:22.938Z,6.19
2022-12-04T13:54:03.353Z,6.18
2022-12-04T13:56:33.004Z,6.22
2022-12-04T13:59:03.929Z,6.23
2022-12-04T14:01:44.951Z,6.24
2022-12-04T14:04:26.302Z,6.24
2022-12-04T14:06:56.465Z,6.25
2022-12-04T14:09:29.504Z,6.24
2022-12-04T14:12:03.948Z,6.26
2022-12-04T14:14:42.923Z,6.26
2022-12-04T14:17:20.361Z,6.29
2022-12-04T14:19:56.305Z,6.29
2022-12-04T14:22:40.128Z,6.29
2022-12-04T14:25:21.510Z,6.29
2022-12-04T14:27:53.684Z,6.33
2022-12-04T14:30:24.774Z,6.36
2022-12-04T14:32:59.405Z,6.54
2022-12-04T14:35:29.225Z,6.63
2022-12-04T14:37:59.333Z,6.62
2022-12-04T14:40:28.810Z,6.61
2022-12-04T14:42:56.102Z,6.59
2022-12-04T14:45:32.433Z,6.57
2022-12-04T14:48:17.741Z,6.55
2022-12-04T14:50:51.924Z,6.50
2022-12-04T14:53:30.031Z,6.46
2022-12-04T14:56:07.834Z,6.39
2022-12-04T14:58:38.587Z,6.44
2022-12-04T15:01:16.512Z,6.50
2022-12-04T15:03:46.237Z,6.52
2022-12-04T15:06:25.946Z,6.50
2022-12-04T15:09:14.406Z,6.57
2022-12-04T15:12:04.883Z,6.62
2022-12-04T15:14:40.809Z,6.63
2022-12-04T15:17:11.290Z,6.62
2022-12-04T15:19:39.176Z,6.58
2022-12-04T15:22:12.089Z,6.59
2022-12-04T15:24:39.541Z,6.63
2022-12-04T15:27:07.110Z,6.64
2022-12-04T15:29:38.261Z,6.59
2022-12-04T15:32:10.869Z,6.57
2022-12-04T15:34:42.284Z,6.54
2022-12-04T15:37:18.853Z,6.54
2022-12-04T15:39:46.833Z,6.52
2022-12-04T15:42:17.388Z,6.51
2022-12-04T15:44:52.622Z,6.54
2022-12-04T15:47:22.523Z,6.57
2022-12-04T15:49:49.800Z,6.59
2022-12-04T15:52:20.633Z,6.58
2022-12-04T15:54:53.922Z,6.57
2022-12-04T15:57:26.730Z,6.53
2022-12-04T15:59:55.200Z,6.54
2022-12-04T16:02:28.194Z,6.53
2022-12-04T16:04:55.196Z,6.55
2022-12-04T16:07:26.705Z,6.56
2022-12-04T16:10:02.810Z,6.50
2022-12-04T16:12:32.369Z,6.43
2022-12-04T16:14:59.343Z,6.44
2022-12-04T16:17:30.867Z,6.43
2022-12-04T16:19:59.093Z,6.40
2022-12-04T16:22:27.518Z,6.42
2022-12-04T16:24:56.451Z,6.45
2022-12-04T16:27:25.542Z,6.45
2022-12-04T16:29:53.237Z,6.44
2022-12-04T16:32:22.249Z,6.44
2022-12-04T16:34:49.360Z,6.46
2022-12-04T16:37:19.347Z,6.45
2022-12-04T16:39:48.307Z,6.46
2022-12-04T16:42:18.085Z,6.44
2022-12-04T16:44:45.353Z,6.42
2022-12-04T16:47:13.277Z,6.40
2022-12-04T16:49:41.178Z,6.39
2022-12-04T16:52:09.587Z,6.41
2022-12-04T16:54:36.750Z,6.41
2022-12-04T16:57:05.295Z,6.44
2022-12-04T16:59:32.809Z,6.41
2022-12-04T17:02:00.566Z,6.37
2022-12-04T17:04:27.636Z,6.37
2022-12-04T17:06:55.205Z,6.34
2022-12-04T17:09:22.164Z,6.35
2022-12-04T17:11:49.193Z,6.37
2022-12-04T17:14:17.547Z,6.35
2022-12-04T17:16:47.100Z,6.34
2022-12-04T17:19:14.681Z,6.32
2022-12-04T17:21:41.918Z,6.31
2022-12-04T17:24:09.319Z,6.28
2022-12-04T17:26:36.449Z,6.24
2022-12-04T17:29:03.889Z,6.22
2022-12-04T17:31:32.375Z,6.25
2022-12-04T17:33:59.464Z,6.25
2022-12-04T17:36:27.889Z,6.24
2022-12-04T17:38:56.214Z,6.25
2022-12-04T17:41:24.080Z,6.24
2022-12-04T17:43:51.093Z,6.24
2022-12-04T17:46:21.737Z,6.23
2022-12-04T17:48:51.217Z,6.25
2022-12-04T17:51:20.744Z,6.26
2022-12-04T17:53:48.392Z,6.27
2022-12-04T17:56:18.525Z,6.30
2022-12-04T17:58:46.179Z,6.29
2022-12-04T18:01:14.940Z,6.32
2022-12-04T18:03:43.428Z,6.37
2022-12-04T18:06:17.561Z,6.34
2022-12-04T18:08:49.834Z,6.34
2022-12-04T18:11:18.756Z,6.30
2022-12-04T18:13:45.727Z,6.29
2022-12-04T18:16:13.340Z,6.28
2022-12-04T18:18:40.932Z,6.28
2022-12-04T18:21:10.713Z,6.26
2022-12-04T18:23:45.028Z,6.26
2022-12-04T18:26:13.312Z,6.25
2022-12-04T18:28:40.287Z,6.30
2022-12-04T18:31:08.297Z,6.32
2022-12-04T18:33:36.801Z,6.32
2022-12-04T18:36:09.428Z,6.33
2022-12-04T18:38:36.605Z,6.35
2022-12-04T18:41:06.829Z,6.37
2022-12-04T18:43:35.093Z,6.37
2022-12-04T18:46:07.656Z,6.36
2022-12-04T18:48:35.850Z,6.37
2022-12-04T18:51:14.111Z,6.35
2022-12-04T18:53:41.321Z,6.35
2022-12-04T18:56:09.663Z,6.32
2022-12-04T18:58:37.053Z,6.31
2022-12-04T19:01:07.918Z,6.35
2022-12-04T19:03:35.446Z,6.37
2022-12-04T19:06:03.164Z,6.36
2022-12-04T19:08:33.723Z,6.39
2022-12-04T19:11:06.620Z,6.36
2022-12-04T19:13:35.372Z,6.35
2022-12-04T19:16:02.897Z,6.33
2022-12-04T19:18:30.413Z,6.34
2022-12-04T19:20:57.753Z,6.32
2022-12-04T19:23:24.835Z,6.33
2022-12-04T19:25:56.079Z,6.32
2022-12-04T19:28:23.822Z,6.34
2022-12-04T19:30:52.482Z,6.33
2022-12-04T19:33:19.834Z,6.33
2022-12-04T19:35:56.405Z,6.34
2022-12-04T19:38:23.466Z,6.36
2022-12-04T19:40:50.402Z,6.38
2022-12-04T19:43:17.431Z,6.39
2022-12-04T19:45:48.002Z,6.40
2022-12-04T19:48:16.362Z,6.39
2022-12-04T19:50:43.458Z,6.41
2022-12-04T19:53:10.393Z,6.42
2022-12-04T19:55:37.698Z,6.40
2022-12-04T19:58:04.754Z,6.42
2022-12-04T20:00:31.826Z,6.46
2022-12-04T20:02:58.935Z,6.49
2022-12-04T20:05:27.382Z,6.46
2022-12-04T20:07:55.687Z,6.46
2022-12-04T20:10:22.918Z,6.45
2022-12-04T20:12:50.373Z,6.46
2022-12-04T20:15:17.441Z,6.49
2022-12-04T20:17:44.467Z,6.50
2022-12-04T20:20:11.818Z,6.53
2022-12-04T20:22:40.214Z,6.56
2022-12-04T20:25:07.901Z,6.55
2022-12-04T20:27:34.986Z,6.57
2022-12-04T20:30:02.000Z,6.58
2022-12-04T20:32:28.959Z,6.59
2022-12-04T20:34:55.960Z,6.60
2022-12-04T20:37:22.922Z,6.59
2022-12-04T20:39:51.225Z,6.57
2022-12-04T20:42:18.458Z,6.52
2022-12-04T20:44:45.516Z,6.51
2022-12-04T20:47:12.583Z,6.50
2022-12-04T20:49:39.629Z,6.47
2022-12-04T20:52:06.680Z,6.45
2022-12-04T20:54:41.034Z,6.40
2022-12-04T20:57:10.507Z,6.38
2022-12-04T20:59:37.589Z,6.37
2022-12-04T21:02:04.643Z,6.36
2022-12-04T21:04:35.139Z,6.35
2022-12-04T21:07:02.167Z,6.34
2022-12-04T21:09:29.341Z,6.35
2022-12-04T21:11:56.639Z,6.33
2022-12-04T21:14:46.134Z,6.31
2022-12-04T21:17:18.474Z,6.30
2022-12-04T21:19:46.473Z,6.32
2022-12-04T21:22:13.965Z,6.32
2022-12-04T21:24:42.246Z,6.34
2022-12-04T21:27:11.565Z,6.35
2022-12-04T21:29:41.953Z,6.36
2022-12-04T21:32:09.141Z,6.39
2022-12-04T21:34:36.137Z,6.40
2022-12-04T21:37:03.643Z,6.41
2022-12-04T21:39:30.713Z,6.40
2022-12-04T21:42:16.012Z,6.39
2022-12-04T21:44:44.475Z,6.38
2022-12-04T21:47:11.450Z,6.37
2022-12-04T21:49:38.605Z,6.36
2022-12-04T21:52:05.558Z,6.35
2022-12-04T21:54:32.553Z,6.33
2022-12-04T21:56:59.519Z,6.34
2022-12-04T21:59:26.755Z,6.34
2022-12-04T22:01:55.168Z,6.33
2022-12-04T22:04:22.557Z,6.32
2022-12-04T22:06:49.995Z,6.31
2022-12-04T22:09:17.389Z,6.32
2022-12-04T22:11:44.413Z,6.35
2022-12-04T22:14:12.039Z,6.35
2022-12-04T22:16:42.810Z,6.37
2022-12-04T22:19:12.437Z,6.38
2022-12-04T22:21:40.257Z,6.39
2022-12-04T22:24:08.181Z,6.41
2022-12-04T22:26:35.238Z,6.41
2022-12-04T22:29:11.283Z,6.40
2022-12-04T22:31:49.825Z,6.41
2022-12-04T22:34:18.221Z,6.42
2022-12-04T22:36:45.125Z,6.39
2022-12-04T22:39:12.181Z,6.36
2022-12-04T22:41:39.394Z,6.36
2022-12-04T22:44:06.409Z,6.34
2022-12-04T22:46:33.864Z,6.32
2022-12-04T22:49:01.213Z,6.33
2022-12-04T22:51:29.641Z,6.37
2022-12-04T22:53:57.912Z,6.41
2022-12-04T22:56:26.781Z,6.44
2022-12-04T22:58:54.572Z,6.48
2022-12-04T23:01:23.737Z,6.50
2022-12-04T23:03:51.224Z,6.54
2022-12-04T23:06:20.038Z,6.58
2022-12-04T23:08:48.925Z,6.58
2022-12-04T23:11:18.248Z,6.61
2022-12-04T23:13:50.316Z,6.61
2022-12-04T23:16:20.395Z,6.49
2022-12-04T23:18:47.896Z,6.48
2022-12-04T23:21:16.193Z,6.48
2022-12-04T23:23:46.965Z,6.50
2022-12-04T23:26:18.735Z,6.54
2022-12-04T23:28:46.221Z,6.55
2022-12-04T23:31:13.535Z,6.58
2022-12-04T23:33:41.023Z,6.61
2022-12-04T23:36:10.984Z,6.61
2022-12-04T23:38:39.431Z,6.64
2022-12-04T23:41:08.674Z,6.65
2022-12-04T23:43:37.448Z,6.67
2022-12-04T23:46:10.711Z,6.67
2022-12-04T23:48:39.040Z,6.68
2022-12-04T23:51:06.884Z,6.69
2022-12-04T23:53:33.862Z,6.68
2022-12-04T23:56:07.081Z,6.67
2022-12-04T23:58:36.391Z,6.64
